sensor_id;sensor_type;location;lat;lon;timestamp;P1;durP1;ratioP1;P2;durP2;ratioP2
30068;SDS011;16894;49.456;10.644;2023-07-08T00:00:21;276.38;;;258.92;;
30068;SDS011;16894;49.456;10.644;2023-07-08T00:02:50;248.95;;;232.80;;
30068;SDS011;16894;49.456;10.644;2023-07-08T00:05:17;225.35;;;210.80;;
30068;SDS011;16894;49.456;10.644;2023-07-08T00:07:44;237.55;;;222.40;;
30068;SDS011;16894;49.456;10.644;2023-07-08T00:10:21;345.10;;;322.98;;
30068;SDS011;16894;49.456;10.644;2023-07-08T00:12:52;360.58;;;337.10;;
30068;SDS011;16894;49.456;10.644;2023-07-08T00:15:20;210.77;;;197.13;;
30068;SDS011;16894;49.456;10.644;2023-07-08T00:17:47;225.20;;;210.30;;
30068;SDS011;16894;49.456;10.644;2023-07-08T00:20:13;218.60;;;204.80;;
30068;SDS011;16894;49.456;10.644;2023-07-08T00:22:48;194.25;;;181.50;;
30068;SDS011;16894;49.456;10.644;2023-07-08T00:25:17;133.77;;;125.03;;
30068;SDS011;16894;49.456;10.644;2023-07-08T00:27:46;110.82;;;103.40;;
30068;SDS011;16894;49.456;10.644;2023-07-08T00:30:19;111.05;;;103.68;;
30068;SDS011;16894;49.456;10.644;2023-07-08T00:32:49;63.53;;;59.25;;
30068;SDS011;16894;49.456;10.644;2023-07-08T00:35:21;65.78;;;61.25;;
30068;SDS011;16894;49.456;10.644;2023-07-08T00:37:51;67.57;;;63.28;;
30068;SDS011;16894;49.456;10.644;2023-07-08T00:40:26;72.63;;;67.55;;
30068;SDS011;16894;49.456;10.644;2023-07-08T00:42:57;62.40;;;58.15;;
30068;SDS011;16894;49.456;10.644;2023-07-08T00:45:35;71.50;;;66.72;;
30068;SDS011;16894;49.456;10.644;2023-07-08T00:50:48;51.20;;;47.40;;
30068;SDS011;16894;49.456;10.644;2023-07-08T00:55:53;47.70;;;44.33;;
30068;SDS011;16894;49.456;10.644;2023-07-08T00:58:29;53.85;;;50.00;;
30068;SDS011;16894;49.456;10.644;2023-07-08T01:01:10;51.28;;;47.25;;
30068;SDS011;16894;49.456;10.644;2023-07-08T01:03:40;39.83;;;36.95;;
30068;SDS011;16894;49.456;10.644;2023-07-08T01:06:29;39.65;;;36.78;;
30068;SDS011;16894;49.456;10.644;2023-07-08T01:09:00;39.00;;;36.17;;
30068;SDS011;16894;49.456;10.644;2023-07-08T01:11:28;35.42;;;32.92;;
30068;SDS011;16894;49.456;10.644;2023-07-08T01:13:55;36.22;;;33.13;;
30068;SDS011;16894;49.456;10.644;2023-07-08T01:16:23;35.60;;;32.95;;
30068;SDS011;16894;49.456;10.644;2023-07-08T01:18:49;37.13;;;34.53;;
30068;SDS011;16894;49.456;10.644;2023-07-08T01:21:37;38.72;;;35.95;;
30068;SDS011;16894;49.456;10.644;2023-07-08T01:24:08;43.72;;;40.30;;
30068;SDS011;16894;49.456;10.644;2023-07-08T01:26:36;44.03;;;41.00;;
30068;SDS011;16894;49.456;10.644;2023-07-08T01:29:05;42.65;;;39.17;;
30068;SDS011;16894;49.456;10.644;2023-07-08T01:31:32;41.65;;;38.30;;
30068;SDS011;16894;49.456;10.644;2023-07-08T01:36:24;57.90;;;53.95;;
30068;SDS011;16894;49.456;10.644;2023-07-08T01:38:54;43.38;;;39.95;;
30068;SDS011;16894;49.456;10.644;2023-07-08T01:41:20;45.03;;;41.63;;
30068;SDS011;16894;49.456;10.644;2023-07-08T01:43:45;42.10;;;39.17;;
30068;SDS011;16894;49.456;10.644;2023-07-08T01:46:12;50.43;;;46.93;;
30068;SDS011;16894;49.456;10.644;2023-07-08T01:48:43;46.17;;;42.72;;
30068;SDS011;16894;49.456;10.644;2023-07-08T01:51:13;49.28;;;45.67;;
30068;SDS011;16894;49.456;10.644;2023-07-08T01:53:40;47.33;;;44.00;;
30068;SDS011;16894;49.456;10.644;2023-07-08T01:56:08;50.30;;;46.97;;
30068;SDS011;16894;49.456;10.644;2023-07-08T01:58:34;44.10;;;40.80;;
30068;SDS011;16894;49.456;10.644;2023-07-08T02:01:00;42.93;;;40.03;;
30068;SDS011;16894;49.456;10.644;2023-07-08T02:03:26;51.70;;;48.35;;
30068;SDS011;16894;49.456;10.644;2023-07-08T02:05:52;49.75;;;46.50;;
30068;SDS011;16894;49.456;10.644;2023-07-08T02:08:18;52.23;;;48.37;;
30068;SDS011;16894;49.456;10.644;2023-07-08T02:10:49;49.15;;;45.58;;
30068;SDS011;16894;49.456;10.644;2023-07-08T02:13:16;51.17;;;47.72;;
30068;SDS011;16894;49.456;10.644;2023-07-08T02:15:45;50.70;;;47.40;;
30068;SDS011;16894;49.456;10.644;2023-07-08T02:18:11;55.65;;;52.00;;
30068;SDS011;16894;49.456;10.644;2023-07-08T02:20:37;49.78;;;46.28;;
30068;SDS011;16894;49.456;10.644;2023-07-08T02:23:03;49.93;;;46.67;;
30068;SDS011;16894;49.456;10.644;2023-07-08T02:25:28;55.20;;;51.40;;
30068;SDS011;16894;49.456;10.644;2023-07-08T02:27:54;78.23;;;72.50;;
30068;SDS011;16894;49.456;10.644;2023-07-08T02:30:25;57.38;;;53.35;;
30068;SDS011;16894;49.456;10.644;2023-07-08T02:32:51;48.28;;;45.08;;
30068;SDS011;16894;49.456;10.644;2023-07-08T02:35:26;50.35;;;47.00;;
30068;SDS011;16894;49.456;10.644;2023-07-08T02:37:54;51.90;;;48.15;;
30068;SDS011;16894;49.456;10.644;2023-07-08T02:40:21;52.63;;;48.90;;
30068;SDS011;16894;49.456;10.644;2023-07-08T02:42:47;55.35;;;51.80;;
30068;SDS011;16894;49.456;10.644;2023-07-08T02:45:13;51.40;;;47.95;;
30068;SDS011;16894;49.456;10.644;2023-07-08T02:47:39;37.13;;;34.05;;
30068;SDS011;16894;49.456;10.644;2023-07-08T02:50:07;35.73;;;33.13;;
30068;SDS011;16894;49.456;10.644;2023-07-08T02:52:33;34.20;;;31.90;;
30068;SDS011;16894;49.456;10.644;2023-07-08T02:54:59;35.58;;;33.08;;
30068;SDS011;16894;49.456;10.644;2023-07-08T02:57:25;37.70;;;34.90;;
30068;SDS011;16894;49.456;10.644;2023-07-08T02:59:50;38.40;;;35.27;;
30068;SDS011;16894;49.456;10.644;2023-07-08T03:02:16;35.80;;;33.37;;
30068;SDS011;16894;49.456;10.644;2023-07-08T03:04:42;39.53;;;36.57;;
30068;SDS011;16894;49.456;10.644;2023-07-08T03:07:08;41.67;;;38.77;;
30068;SDS011;16894;49.456;10.644;2023-07-08T03:09:37;41.05;;;37.97;;
30068;SDS011;16894;49.456;10.644;2023-07-08T03:12:06;39.15;;;36.47;;
30068;SDS011;16894;49.456;10.644;2023-07-08T03:14:32;37.30;;;34.78;;
30068;SDS011;16894;49.456;10.644;2023-07-08T03:16:58;45.42;;;42.42;;
30068;SDS011;16894;49.456;10.644;2023-07-08T03:19:24;43.73;;;40.93;;
30068;SDS011;16894;49.456;10.644;2023-07-08T03:21:50;48.97;;;45.75;;
30068;SDS011;16894;49.456;10.644;2023-07-08T03:24:17;41.63;;;38.60;;
30068;SDS011;16894;49.456;10.644;2023-07-08T03:26:45;46.15;;;42.85;;
30068;SDS011;16894;49.456;10.644;2023-07-08T03:29:15;42.47;;;39.38;;
30068;SDS011;16894;49.456;10.644;2023-07-08T03:31:42;44.05;;;40.70;;
30068;SDS011;16894;49.456;10.644;2023-07-08T03:34:11;39.85;;;37.08;;
30068;SDS011;16894;49.456;10.644;2023-07-08T03:36:47;40.13;;;37.03;;
30068;SDS011;16894;49.456;10.644;2023-07-08T03:39:18;39.77;;;37.00;;
30068;SDS011;16894;49.456;10.644;2023-07-08T03:41:49;43.15;;;39.90;;
30068;SDS011;16894;49.456;10.644;2023-07-08T03:44:15;40.05;;;37.30;;
30068;SDS011;16894;49.456;10.644;2023-07-08T03:46:41;43.53;;;40.63;;
30068;SDS011;16894;49.456;10.644;2023-07-08T03:49:11;41.55;;;38.60;;
30068;SDS011;16894;49.456;10.644;2023-07-08T03:51:38;39.45;;;36.70;;
30068;SDS011;16894;49.456;10.644;2023-07-08T03:54:05;38.80;;;36.22;;
30068;SDS011;16894;49.456;10.644;2023-07-08T03:56:33;40.97;;;38.28;;
30068;SDS011;16894;49.456;10.644;2023-07-08T03:58:59;40.15;;;37.55;;
30068;SDS011;16894;49.456;10.644;2023-07-08T04:01:25;40.47;;;37.47;;
30068;SDS011;16894;49.456;10.644;2023-07-08T04:03:52;41.63;;;38.63;;
30068;SDS011;16894;49.456;10.644;2023-07-08T04:06:19;45.55;;;42.40;;
30068;SDS011;16894;49.456;10.644;2023-07-08T04:08:46;44.35;;;41.25;;
30068;SDS011;16894;49.456;10.644;2023-07-08T04:11:12;38.28;;;35.67;;
30068;SDS011;16894;49.456;10.644;2023-07-08T04:13:39;41.75;;;38.75;;
30068;SDS011;16894;49.456;10.644;2023-07-08T04:16:05;45.60;;;42.37;;
30068;SDS011;16894;49.456;10.644;2023-07-08T04:20:57;37.72;;;34.72;;
30068;SDS011;16894;49.456;10.644;2023-07-08T04:23:23;38.15;;;35.50;;
30068;SDS011;16894;49.456;10.644;2023-07-08T04:25:50;38.33;;;35.78;;
30068;SDS011;16894;49.456;10.644;2023-07-08T04:28:19;46.03;;;42.83;;
30068;SDS011;16894;49.456;10.644;2023-07-08T04:30:47;46.08;;;42.78;;
30068;SDS011;16894;49.456;10.644;2023-07-08T04:33:13;48.65;;;44.92;;
30068;SDS011;16894;49.456;10.644;2023-07-08T04:35:40;51.13;;;47.53;;
30068;SDS011;16894;49.456;10.644;2023-07-08T04:38:10;55.47;;;51.95;;
30068;SDS011;16894;49.456;10.644;2023-07-08T04:40:39;55.10;;;51.42;;
30068;SDS011;16894;49.456;10.644;2023-07-08T04:43:05;53.57;;;49.73;;
30068;SDS011;16894;49.456;10.644;2023-07-08T04:47:57;42.80;;;39.72;;
30068;SDS011;16894;49.456;10.644;2023-07-08T04:50:23;43.83;;;40.73;;
30068;SDS011;16894;49.456;10.644;2023-07-08T04:52:48;48.92;;;45.67;;
30068;SDS011;16894;49.456;10.644;2023-07-08T04:55:15;57.63;;;53.53;;
30068;SDS011;16894;49.456;10.644;2023-07-08T04:57:41;57.40;;;53.67;;
30068;SDS011;16894;49.456;10.644;2023-07-08T05:00:07;49.65;;;46.10;;
30068;SDS011;16894;49.456;10.644;2023-07-08T05:02:40;43.35;;;40.30;;
30068;SDS011;16894;49.456;10.644;2023-07-08T05:05:06;38.25;;;35.60;;
30068;SDS011;16894;49.456;10.644;2023-07-08T05:07:32;41.10;;;37.97;;
30068;SDS011;16894;49.456;10.644;2023-07-08T05:09:58;36.40;;;33.80;;
30068;SDS011;16894;49.456;10.644;2023-07-08T05:12:25;35.53;;;32.65;;
30068;SDS011;16894;49.456;10.644;2023-07-08T05:14:52;37.60;;;34.70;;
30068;SDS011;16894;49.456;10.644;2023-07-08T05:17:18;42.33;;;39.40;;
30068;SDS011;16894;49.456;10.644;2023-07-08T05:19:43;42.23;;;39.03;;
30068;SDS011;16894;49.456;10.644;2023-07-08T05:22:11;44.30;;;41.17;;
30068;SDS011;16894;49.456;10.644;2023-07-08T05:24:37;46.65;;;43.55;;
30068;SDS011;16894;49.456;10.644;2023-07-08T05:27:03;59.80;;;55.55;;
30068;SDS011;16894;49.456;10.644;2023-07-08T05:29:29;56.45;;;52.17;;
30068;SDS011;16894;49.456;10.644;2023-07-08T05:31:55;70.10;;;65.23;;
30068;SDS011;16894;49.456;10.644;2023-07-08T05:34:21;70.33;;;65.50;;
30068;SDS011;16894;49.456;10.644;2023-07-08T05:36:46;75.17;;;69.73;;
30068;SDS011;16894;49.456;10.644;2023-07-08T05:39:12;76.50;;;71.40;;
30068;SDS011;16894;49.456;10.644;2023-07-08T05:41:38;69.57;;;64.70;;
30068;SDS011;16894;49.456;10.644;2023-07-08T05:44:04;69.68;;;65.07;;
30068;SDS011;16894;49.456;10.644;2023-07-08T05:46:29;69.83;;;65.03;;
30068;SDS011;16894;49.456;10.644;2023-07-08T05:48:55;98.13;;;91.40;;
30068;SDS011;16894;49.456;10.644;2023-07-08T05:51:21;87.32;;;81.28;;
30068;SDS011;16894;49.456;10.644;2023-07-08T05:53:46;87.57;;;81.70;;
30068;SDS011;16894;49.456;10.644;2023-07-08T05:56:12;79.83;;;74.37;;
30068;SDS011;16894;49.456;10.644;2023-07-08T05:58:38;86.70;;;80.78;;
30068;SDS011;16894;49.456;10.644;2023-07-08T06:01:04;107.50;;;100.47;;
30068;SDS011;16894;49.456;10.644;2023-07-08T06:03:29;116.63;;;108.55;;
30068;SDS011;16894;49.456;10.644;2023-07-08T06:05:55;121.18;;;111.30;;
30068;SDS011;16894;49.456;10.644;2023-07-08T06:08:21;128.30;;;118.97;;
30068;SDS011;16894;49.456;10.644;2023-07-08T06:10:47;136.40;;;127.40;;
30068;SDS011;16894;49.456;10.644;2023-07-08T06:13:13;180.00;;;168.35;;
30068;SDS011;16894;49.456;10.644;2023-07-08T06:15:39;289.10;;;271.48;;
30068;SDS011;16894;49.456;10.644;2023-07-08T06:18:06;387.70;;;363.33;;
30068;SDS011;16894;49.456;10.644;2023-07-08T06:20:31;549.53;;;512.17;;
30068;SDS011;16894;49.456;10.644;2023-07-08T06:22:57;672.92;;;623.90;;
30068;SDS011;16894;49.456;10.644;2023-07-08T06:25:23;745.38;;;688.60;;
30068;SDS011;16894;49.456;10.644;2023-07-08T06:27:49;802.13;;;741.10;;
30068;SDS011;16894;49.456;10.644;2023-07-08T06:30:14;841.92;;;776.67;;
30068;SDS011;16894;49.456;10.644;2023-07-08T06:32:40;886.80;;;815.95;;
30068;SDS011;16894;49.456;10.644;2023-07-08T06:35:06;958.10;;;877.73;;
30068;SDS011;16894;49.456;10.644;2023-07-08T06:39:58;1111.45;;;999.90;;
30068;SDS011;16894;49.456;10.644;2023-07-08T06:42:24;1121.60;;;999.90;;
30068;SDS011;16894;49.456;10.644;2023-07-08T06:44:50;1205.65;;;999.90;;
30068;SDS011;16894;49.456;10.644;2023-07-08T06:47:17;1308.28;;;999.90;;
30068;SDS011;16894;49.456;10.644;2023-07-08T06:49:43;1299.63;;;999.90;;
30068;SDS011;16894;49.456;10.644;2023-07-08T06:52:09;1343.30;;;999.90;;
30068;SDS011;16894;49.456;10.644;2023-07-08T06:54:34;1427.22;;;999.90;;
30068;SDS011;16894;49.456;10.644;2023-07-08T06:57:00;1436.38;;;999.90;;
30068;SDS011;16894;49.456;10.644;2023-07-08T06:59:26;1605.03;;;999.90;;
30068;SDS011;16894;49.456;10.644;2023-07-08T07:01:53;1683.68;;;999.90;;
30068;SDS011;16894;49.456;10.644;2023-07-08T07:04:19;1382.93;;;792.85;;
30068;SDS011;16894;49.456;10.644;2023-07-08T07:06:45;1999.90;;;999.90;;
30068;SDS011;16894;49.456;10.644;2023-07-08T07:09:10;1999.90;;;999.90;;
30068;SDS011;16894;49.456;10.644;2023-07-08T07:11:36;1999.90;;;999.90;;
30068;SDS011;16894;49.456;10.644;2023-07-08T07:14:02;1999.90;;;999.90;;
30068;SDS011;16894;49.456;10.644;2023-07-08T07:16:28;1999.90;;;999.90;;
30068;SDS011;16894;49.456;10.644;2023-07-08T07:21:19;1999.90;;;999.90;;
30068;SDS011;16894;49.456;10.644;2023-07-08T07:23:45;1999.90;;;999.90;;
30068;SDS011;16894;49.456;10.644;2023-07-08T07:26:11;1999.90;;;999.90;;
30068;SDS011;16894;49.456;10.644;2023-07-08T07:28:36;1999.90;;;999.90;;
30068;SDS011;16894;49.456;10.644;2023-07-08T07:31:02;1999.90;;;999.90;;
30068;SDS011;16894;49.456;10.644;2023-07-08T07:33:30;1999.90;;;999.90;;
30068;SDS011;16894;49.456;10.644;2023-07-08T07:35:56;1999.90;;;999.90;;
30068;SDS011;16894;49.456;10.644;2023-07-08T07:38:23;1999.90;;;999.90;;
30068;SDS011;16894;49.456;10.644;2023-07-08T07:40:53;1999.90;;;999.90;;
30068;SDS011;16894;49.456;10.644;2023-07-08T07:43:20;1999.90;;;999.90;;
30068;SDS011;16894;49.456;10.644;2023-07-08T07:45:49;1999.90;;;999.90;;
30068;SDS011;16894;49.456;10.644;2023-07-08T07:48:18;1999.90;;;999.90;;
30068;SDS011;16894;49.456;10.644;2023-07-08T07:50:48;1999.90;;;999.90;;
30068;SDS011;16894;49.456;10.644;2023-07-08T07:53:18;1999.90;;;999.90;;
30068;SDS011;16894;49.456;10.644;2023-07-08T07:55:43;1999.90;;;999.90;;
30068;SDS011;16894;49.456;10.644;2023-07-08T07:58:09;1999.90;;;999.90;;
30068;SDS011;16894;49.456;10.644;2023-07-08T08:00:37;1999.90;;;999.90;;
30068;SDS011;16894;49.456;10.644;2023-07-08T08:03:03;1999.90;;;999.90;;
30068;SDS011;16894;49.456;10.644;2023-07-08T08:05:29;1999.90;;;999.90;;
30068;SDS011;16894;49.456;10.644;2023-07-08T08:07:55;1999.90;;;999.90;;
30068;SDS011;16894;49.456;10.644;2023-07-08T08:10:20;1999.90;;;999.90;;
30068;SDS011;16894;49.456;10.644;2023-07-08T08:12:46;1999.90;;;999.90;;
30068;SDS011;16894;49.456;10.644;2023-07-08T08:15:15;1999.90;;;999.90;;
30068;SDS011;16894;49.456;10.644;2023-07-08T08:17:41;1999.90;;;999.90;;
30068;SDS011;16894;49.456;10.644;2023-07-08T08:20:12;1999.90;;;999.90;;
30068;SDS011;16894;49.456;10.644;2023-07-08T08:22:38;1999.90;;;999.90;;
30068;SDS011;16894;49.456;10.644;2023-07-08T08:25:04;1999.90;;;999.90;;
30068;SDS011;16894;49.456;10.644;2023-07-08T08:27:30;1999.90;;;999.90;;
30068;SDS011;16894;49.456;10.644;2023-07-08T08:29:56;1999.90;;;999.90;;
30068;SDS011;16894;49.456;10.644;2023-07-08T08:34:47;1999.90;;;999.90;;
30068;SDS011;16894;49.456;10.644;2023-07-08T08:39:39;1999.90;;;999.90;;
30068;SDS011;16894;49.456;10.644;2023-07-08T08:44:38;1999.90;;;999.90;;
30068;SDS011;16894;49.456;10.644;2023-07-08T08:47:23;1999.90;;;999.90;;
30068;SDS011;16894;49.456;10.644;2023-07-08T08:53:11;1999.90;;;999.90;;
30068;SDS011;16894;49.456;10.644;2023-07-08T08:55:41;1999.90;;;999.90;;
30068;SDS011;16894;49.456;10.644;2023-07-08T09:01:11;1999.90;;;999.90;;
30068;SDS011;16894;49.456;10.644;2023-07-08T09:06:29;1999.90;;;999.90;;
30068;SDS011;16894;49.456;10.644;2023-07-08T09:09:02;1999.90;;;999.90;;
30068;SDS011;16894;49.456;10.644;2023-07-08T09:13:59;1999.90;;;999.90;;
30068;SDS011;16894;49.456;10.644;2023-07-08T09:24:41;1999.90;;;999.90;;
30068;SDS011;16894;49.456;10.644;2023-07-08T09:27:02;1999.90;;;999.90;;
30068;SDS011;16894;49.456;10.644;2023-07-08T09:29:28;1999.90;;;999.90;;
30068;SDS011;16894;49.456;10.644;2023-07-08T09:31:57;1999.90;;;999.90;;
30068;SDS011;16894;49.456;10.644;2023-07-08T09:34:36;1999.90;;;999.90;;
30068;SDS011;16894;49.456;10.644;2023-07-08T09:37:18;1999.90;;;999.90;;
30068;SDS011;16894;49.456;10.644;2023-07-08T09:39:51;1999.90;;;999.90;;
30068;SDS011;16894;49.456;10.644;2023-07-08T09:42:21;1999.90;;;999.90;;
30068;SDS011;16894;49.456;10.644;2023-07-08T09:44:55;1999.90;;;999.90;;
30068;SDS011;16894;49.456;10.644;2023-07-08T09:47:35;1999.90;;;999.90;;
30068;SDS011;16894;49.456;10.644;2023-07-08T09:50:03;1999.90;;;999.90;;
30068;SDS011;16894;49.456;10.644;2023-07-08T09:52:40;1999.90;;;999.90;;
30068;SDS011;16894;49.456;10.644;2023-07-08T09:55:10;1999.90;;;999.90;;
30068;SDS011;16894;49.456;10.644;2023-07-08T09:57:36;1999.90;;;999.90;;
30068;SDS011;16894;49.456;10.644;2023-07-08T10:00:07;1999.90;;;999.90;;
30068;SDS011;16894;49.456;10.644;2023-07-08T10:02:39;1999.90;;;999.90;;
30068;SDS011;16894;49.456;10.644;2023-07-08T10:07:37;1999.90;;;999.90;;
30068;SDS011;16894;49.456;10.644;2023-07-08T10:10:06;1999.90;;;999.90;;
30068;SDS011;16894;49.456;10.644;2023-07-08T10:12:36;1999.90;;;999.90;;
30068;SDS011;16894;49.456;10.644;2023-07-08T10:18:02;1999.90;;;999.90;;
30068;SDS011;16894;49.456;10.644;2023-07-08T10:20:32;1999.90;;;999.90;;
30068;SDS011;16894;49.456;10.644;2023-07-08T10:23:38;1999.90;;;999.90;;
30068;SDS011;16894;49.456;10.644;2023-07-08T10:26:34;1999.90;;;999.90;;
30068;SDS011;16894;49.456;10.644;2023-07-08T10:45:25;1999.90;;;999.90;;
30068;SDS011;16894;49.456;10.644;2023-07-08T10:56:16;1999.90;;;999.90;;
30068;SDS011;16894;49.456;10.644;2023-07-08T10:58:57;1999.90;;;999.90;;
30068;SDS011;16894;49.456;10.644;2023-07-08T11:01:54;1999.90;;;999.90;;
30068;SDS011;16894;49.456;10.644;2023-07-08T11:07:12;1999.90;;;999.90;;
30068;SDS011;16894;49.456;10.644;2023-07-08T11:10:01;1999.90;;;999.90;;
30068;SDS011;16894;49.456;10.644;2023-07-08T11:12:56;1999.90;;;999.90;;
30068;SDS011;16894;49.456;10.644;2023-07-08T11:15:28;1999.90;;;999.90;;
30068;SDS011;16894;49.456;10.644;2023-07-08T11:18:06;1999.90;;;999.90;;
30068;SDS011;16894;49.456;10.644;2023-07-08T11:25:57;1999.90;;;999.90;;
30068;SDS011;16894;49.456;10.644;2023-07-08T11:28:32;1999.90;;;999.90;;
30068;SDS011;16894;49.456;10.644;2023-07-08T11:30:58;1999.90;;;999.90;;
30068;SDS011;16894;49.456;10.644;2023-07-08T11:33:27;1999.90;;;999.90;;
30068;SDS011;16894;49.456;10.644;2023-07-08T11:35:56;1999.90;;;999.90;;
30068;SDS011;16894;49.456;10.644;2023-07-08T11:38:24;1999.90;;;999.90;;
30068;SDS011;16894;49.456;10.644;2023-07-08T11:43:55;1999.90;;;999.90;;
30068;SDS011;16894;49.456;10.644;2023-07-08T11:46:28;1999.90;;;999.90;;
30068;SDS011;16894;49.456;10.644;2023-07-08T11:48:57;1999.90;;;999.90;;
30068;SDS011;16894;49.456;10.644;2023-07-08T11:51:37;1999.90;;;999.90;;
30068;SDS011;16894;49.456;10.644;2023-07-08T11:54:12;1999.90;;;999.90;;
30068;SDS011;16894;49.456;10.644;2023-07-08T11:56:46;1999.90;;;999.90;;
30068;SDS011;16894;49.456;10.644;2023-07-08T11:59:23;1999.90;;;999.90;;
30068;SDS011;16894;49.456;10.644;2023-07-08T12:04:32;1999.90;;;999.90;;
30068;SDS011;16894;49.456;10.644;2023-07-08T12:07:06;1999.90;;;999.90;;
30068;SDS011;16894;49.456;10.644;2023-07-08T12:09:56;446.67;;;418.38;;
30068;SDS011;16894;49.456;10.644;2023-07-08T12:12:28;491.05;;;459.33;;
30068;SDS011;16894;49.456;10.644;2023-07-08T12:15:04;484.30;;;452.33;;
30068;SDS011;16894;49.456;10.644;2023-07-08T12:17:36;1999.90;;;999.90;;
30068;SDS011;16894;49.456;10.644;2023-07-08T12:20:05;514.95;;;480.67;;
30068;SDS011;16894;49.456;10.644;2023-07-08T12:22:41;545.65;;;508.17;;
30068;SDS011;16894;49.456;10.644;2023-07-08T12:25:17;570.78;;;530.58;;
30068;SDS011;16894;49.456;10.644;2023-07-08T12:27:45;564.45;;;525.08;;
30068;SDS011;16894;49.456;10.644;2023-07-08T12:30:12;554.13;;;515.90;;
30068;SDS011;16894;49.456;10.644;2023-07-08T12:32:42;511.83;;;477.75;;
30068;SDS011;16894;49.456;10.644;2023-07-08T12:35:22;523.05;;;487.52;;
30068;SDS011;16894;49.456;10.644;2023-07-08T12:37:51;497.95;;;464.55;;
30068;SDS011;16894;49.456;10.644;2023-07-08T12:40:19;454.33;;;425.40;;
30068;SDS011;16894;49.456;10.644;2023-07-08T12:42:47;1999.90;;;999.90;;
30068;SDS011;16894;49.456;10.644;2023-07-08T12:45:14;1999.90;;;999.90;;
30068;SDS011;16894;49.456;10.644;2023-07-08T12:47:42;1999.90;;;999.90;;
30068;SDS011;16894;49.456;10.644;2023-07-08T12:50:09;1999.90;;;999.90;;
30068;SDS011;16894;49.456;10.644;2023-07-08T12:52:36;1999.90;;;999.90;;
30068;SDS011;16894;49.456;10.644;2023-07-08T12:55:02;1999.90;;;999.90;;
30068;SDS011;16894;49.456;10.644;2023-07-08T12:57:27;1999.90;;;999.90;;
30068;SDS011;16894;49.456;10.644;2023-07-08T12:59:53;1999.90;;;999.90;;
30068;SDS011;16894;49.456;10.644;2023-07-08T13:02:20;1999.90;;;999.90;;
30068;SDS011;16894;49.456;10.644;2023-07-08T13:04:49;1999.90;;;999.90;;
30068;SDS011;16894;49.456;10.644;2023-07-08T13:07:22;1999.90;;;999.90;;
30068;SDS011;16894;49.456;10.644;2023-07-08T13:09:55;1999.90;;;999.90;;
30068;SDS011;16894;49.456;10.644;2023-07-08T13:12:21;1999.90;;;999.90;;
30068;SDS011;16894;49.456;10.644;2023-07-08T13:14:49;1999.90;;;999.90;;
30068;SDS011;16894;49.456;10.644;2023-07-08T13:17:19;1999.90;;;999.90;;
30068;SDS011;16894;49.456;10.644;2023-07-08T13:19:45;1999.90;;;999.90;;
30068;SDS011;16894;49.456;10.644;2023-07-08T13:22:18;1999.90;;;999.90;;
30068;SDS011;16894;49.456;10.644;2023-07-08T13:24:46;1999.90;;;999.90;;
30068;SDS011;16894;49.456;10.644;2023-07-08T13:27:16;1999.90;;;999.90;;
30068;SDS011;16894;49.456;10.644;2023-07-08T13:29:47;1999.90;;;999.90;;
30068;SDS011;16894;49.456;10.644;2023-07-08T13:32:15;1999.90;;;999.90;;
30068;SDS011;16894;49.456;10.644;2023-07-08T13:34:41;1999.90;;;999.90;;
30068;SDS011;16894;49.456;10.644;2023-07-08T13:37:12;1999.90;;;999.90;;
30068;SDS011;16894;49.456;10.644;2023-07-08T13:39:38;1999.90;;;999.90;;
30068;SDS011;16894;49.456;10.644;2023-07-08T13:42:08;1999.90;;;999.90;;
30068;SDS011;16894;49.456;10.644;2023-07-08T13:44:34;442.02;;;414.25;;
30068;SDS011;16894;49.456;10.644;2023-07-08T13:47:17;524.83;;;489.30;;
30068;SDS011;16894;49.456;10.644;2023-07-08T13:49:54;551.15;;;513.15;;
30068;SDS011;16894;49.456;10.644;2023-07-08T13:52:25;588.08;;;546.00;;
30068;SDS011;16894;49.456;10.644;2023-07-08T13:54:57;599.45;;;556.92;;
30068;SDS011;16894;49.456;10.644;2023-07-08T13:57:30;510.70;;;476.45;;
30068;SDS011;16894;49.456;10.644;2023-07-08T13:59:58;1999.90;;;999.90;;
30068;SDS011;16894;49.456;10.644;2023-07-08T14:02:25;1999.90;;;999.90;;
30068;SDS011;16894;49.456;10.644;2023-07-08T14:04:56;1999.90;;;999.90;;
30068;SDS011;16894;49.456;10.644;2023-07-08T14:07:24;1999.90;;;999.90;;
30068;SDS011;16894;49.456;10.644;2023-07-08T14:09:52;1999.90;;;999.90;;
30068;SDS011;16894;49.456;10.644;2023-07-08T14:12:19;1999.90;;;999.90;;
30068;SDS011;16894;49.456;10.644;2023-07-08T14:14:45;1999.90;;;999.90;;
30068;SDS011;16894;49.456;10.644;2023-07-08T14:17:12;1999.90;;;999.90;;
30068;SDS011;16894;49.456;10.644;2023-07-08T14:19:41;1999.90;;;999.90;;
30068;SDS011;16894;49.456;10.644;2023-07-08T14:24:42;1999.90;;;999.90;;
30068;SDS011;16894;49.456;10.644;2023-07-08T14:27:08;1999.90;;;999.90;;
30068;SDS011;16894;49.456;10.644;2023-07-08T14:29:40;1999.90;;;999.90;;
30068;SDS011;16894;49.456;10.644;2023-07-08T14:32:10;1999.90;;;999.90;;
30068;SDS011;16894;49.456;10.644;2023-07-08T14:37:20;420.25;;;393.83;;
30068;SDS011;16894;49.456;10.644;2023-07-08T14:39:46;1999.90;;;999.90;;
30068;SDS011;16894;49.456;10.644;2023-07-08T14:42:12;1999.90;;;999.90;;
30068;SDS011;16894;49.456;10.644;2023-07-08T14:44:41;1999.90;;;999.90;;
30068;SDS011;16894;49.456;10.644;2023-07-08T14:47:10;1999.90;;;999.90;;
30068;SDS011;16894;49.456;10.644;2023-07-08T14:49:37;362.77;;;341.00;;
30068;SDS011;16894;49.456;10.644;2023-07-08T14:52:03;468.42;;;438.13;;
30068;SDS011;16894;49.456;10.644;2023-07-08T14:54:29;1999.90;;;999.90;;
30068;SDS011;16894;49.456;10.644;2023-07-08T14:56:55;485.85;;;454.15;;
30068;SDS011;16894;49.456;10.644;2023-07-08T14:59:22;622.40;;;576.28;;
30068;SDS011;16894;49.456;10.644;2023-07-08T15:01:50;635.50;;;588.13;;
30068;SDS011;16894;49.456;10.644;2023-07-08T15:04:18;637.30;;;589.80;;
30068;SDS011;16894;49.456;10.644;2023-07-08T15:06:44;711.38;;;656.22;;
30068;SDS011;16894;49.456;10.644;2023-07-08T15:09:11;759.83;;;699.55;;
30068;SDS011;16894;49.456;10.644;2023-07-08T15:11:39;767.55;;;707.20;;
30068;SDS011;16894;49.456;10.644;2023-07-08T15:14:09;778.53;;;715.75;;
30068;SDS011;16894;49.456;10.644;2023-07-08T15:16:43;786.38;;;722.53;;
30068;SDS011;16894;49.456;10.644;2023-07-08T15:19:11;808.70;;;742.35;;
30068;SDS011;16894;49.456;10.644;2023-07-08T15:21:37;809.00;;;742.58;;
30068;SDS011;16894;49.456;10.644;2023-07-08T15:24:11;802.55;;;736.67;;
30068;SDS011;16894;49.456;10.644;2023-07-08T15:26:42;695.78;;;640.97;;
30068;SDS011;16894;49.456;10.644;2023-07-08T15:29:12;665.63;;;614.90;;
30068;SDS011;16894;49.456;10.644;2023-07-08T15:31:40;628.00;;;580.95;;